Main page
METAR-TAF:

METAR-TAF

Airports :

London Biggin Hill Airport

London Biggin Hill, England

latitude: 51-19N, longitude: 000-02E, elevation: 183 m

Current weather observation

The report was made 8 hours and 19 minutes ago, at 21:20 UTC
Wind 9 kt from the West
Temperature 6°C
Humidity 87%
Pressure 1017 hPa
Visibility 10 km or more
Broken clouds at a height of 4000 ft

METAR: EGKB 162120Z 28009KT 9999 BKN040 06/04 Q1017

Time: 05:39 (05:39 UTC)

Forecast

The report was made 12 hours and 44 minutes ago, at 16:55 UTC
Forecast valid from 16 at 18 UTC to 16 at 22 UTC
Wind 5 kt from the West
Visibility 10 km or more
Few clouds at a height of 800 ft
Scattered clouds at a height of 2000 ft

TAF: EGKB 161655Z 1618/1622 27005KT 9999 FEW008 SCT020

Weather observations and forecasts of more than 4000 airports (METAR and TAF reports).

The available stations are represented by yellow and red dots on the map.

Hover mouse over dot to see the name of the station.

Then click to see weather observations and forecasts.

To change the map : click on the green buttons with a black cross to zoom in, on the green button with a dash to zoom out, or on the green arrows for adjacent maps.


METAR-TAF: